createdAt,value
2018-05-24T00:01:16.771Z,56.30
2018-05-24T00:03:46.157Z,56.20
2018-05-24T00:06:15.069Z,56.90
2018-05-24T00:08:43.559Z,56.90
2018-05-24T00:11:12.432Z,56.70
2018-05-24T00:13:40.559Z,57.00
2018-05-24T00:16:08.718Z,57.40
2018-05-24T00:18:36.835Z,57.40
2018-05-24T00:21:05.742Z,57.80
2018-05-24T00:23:33.872Z,57.70
2018-05-24T00:26:02.018Z,57.30
2018-05-24T00:28:30.172Z,57.20
2018-05-24T00:30:58.712Z,57.70
2018-05-24T00:33:27.524Z,57.90
2018-05-24T00:35:55.666Z,58.10
2018-05-24T00:38:23.792Z,58.30
2018-05-24T00:40:52.649Z,58.00
2018-05-24T00:43:21.543Z,58.10
2018-05-24T00:45:50.445Z,58.20
2018-05-24T00:48:21.077Z,58.20
2018-05-24T00:50:49.227Z,58.70
2018-05-24T00:53:17.348Z,58.30
2018-05-24T00:55:46.719Z,58.80
2018-05-24T00:58:15.596Z,58.50
2018-05-24T01:00:44.424Z,58.50
2018-05-24T01:03:13.688Z,59.00
2018-05-24T01:05:42.597Z,58.70
2018-05-24T01:08:11.585Z,58.70
2018-05-24T01:10:40.510Z,58.80
2018-05-24T01:13:08.636Z,58.80
2018-05-24T01:15:37.536Z,59.00
2018-05-24T01:18:06.434Z,59.30
2018-05-24T01:20:34.577Z,59.30
2018-05-24T01:23:02.715Z,59.60
2018-05-24T01:25:30.839Z,59.90
2018-05-24T01:27:59.803Z,59.70
2018-05-24T01:30:28.718Z,59.80
2018-05-24T01:32:57.197Z,60.10
2018-05-24T01:35:26.011Z,60.00
2018-05-24T01:37:54.174Z,60.00
2018-05-24T01:40:23.065Z,60.90
2018-05-24T01:42:51.959Z,61.50
2018-05-24T01:45:21.857Z,61.50
2018-05-24T01:47:50.773Z,61.40
2018-05-24T01:50:18.913Z,60.80
2018-05-24T01:52:48.889Z,61.90
2018-05-24T01:55:18.475Z,63.10
2018-05-24T01:57:50.373Z,63.10
2018-05-24T02:00:18.503Z,63.60
2018-05-24T02:02:47.351Z,63.80
2018-05-24T02:05:15.493Z,63.90
2018-05-24T02:07:43.638Z,64.90
2018-05-24T02:10:16.485Z,66.40
2018-05-24T02:12:44.629Z,67.30
2018-05-24T02:15:12.760Z,67.60
2018-05-24T02:17:42.188Z,66.90
2018-05-24T02:20:10.892Z,66.90
2018-05-24T02:22:39.044Z,69.20
2018-05-24T02:25:07.167Z,71.00
2018-05-24T02:27:35.317Z,70.60
2018-05-24T02:30:03.501Z,70.90
2018-05-24T02:32:31.643Z,70.80
2018-05-24T02:34:59.765Z,71.10
2018-05-24T02:37:34.129Z,72.00
2018-05-24T02:40:03.828Z,72.40
2018-05-24T02:42:32.750Z,72.50
2018-05-24T02:45:01.776Z,72.50
2018-05-24T02:47:29.872Z,72.90
2018-05-24T02:49:58.530Z,73.00
2018-05-24T02:52:26.949Z,73.00
2018-05-24T02:54:55.837Z,73.50
2018-05-24T02:57:24.759Z,73.40
2018-05-24T02:59:53.961Z,73.30
2018-05-24T03:02:22.105Z,73.90
2018-05-24T03:04:50.996Z,73.40
2018-05-24T03:07:20.535Z,73.40
2018-05-24T03:09:48.665Z,73.50
2018-05-24T03:12:16.817Z,74.00
2018-05-24T03:14:44.944Z,73.80
2018-05-24T03:17:13.094Z,74.40
2018-05-24T03:19:42.108Z,74.20
2018-05-24T03:22:10.256Z,73.90
2018-05-24T03:24:39.145Z,74.50
2018-05-24T03:27:07.288Z,74.50
2018-05-24T03:29:38.981Z,73.90
2018-05-24T03:32:07.882Z,73.90
2018-05-24T03:34:36.775Z,74.50
2018-05-24T03:37:04.937Z,75.20
2018-05-24T03:39:33.824Z,73.50
2018-05-24T03:42:03.251Z,73.50
2018-05-24T03:44:31.374Z,73.60
2018-05-24T03:46:59.521Z,75.00
2018-05-24T03:49:27.656Z,75.10
2018-05-24T03:51:56.554Z,75.80
2018-05-24T03:54:26.249Z,75.30
2018-05-24T03:56:55.169Z,75.60
2018-05-24T04:02:46.047Z,76.70
2018-05-24T04:05:14.169Z,76.60
2018-05-24T04:07:43.037Z,77.30
2018-05-24T04:10:13.076Z,77.30
2018-05-24T04:12:41.247Z,77.60
2018-05-24T04:15:10.150Z,78.30
2018-05-24T04:17:38.864Z,78.20
2018-05-24T04:20:07.207Z,78.20
2018-05-24T04:22:36.117Z,78.50
2018-05-24T04:25:08.424Z,77.80
2018-05-24T04:27:36.576Z,77.80
2018-05-24T04:30:04.729Z,78.20
2018-05-24T04:32:48.577Z,79.70
2018-05-24T04:35:20.476Z,79.40
2018-05-24T04:37:48.615Z,78.20
2018-05-24T04:40:17.662Z,78.50
2018-05-24T04:42:45.933Z,76.40
2018-05-24T04:45:15.284Z,75.30
2018-05-24T04:47:43.428Z,74.70
2018-05-24T04:50:13.460Z,75.60
2018-05-24T04:52:42.376Z,75.60
2018-05-24T04:55:10.501Z,75.60
2018-05-24T04:57:39.481Z,75.90
2018-05-24T05:00:07.613Z,75.40
2018-05-24T05:02:39.724Z,75.20
2018-05-24T05:05:07.855Z,76.00
2018-05-24T05:07:36.015Z,75.50
2018-05-24T05:10:04.921Z,77.40
2018-05-24T05:12:34.526Z,75.80
2018-05-24T05:15:02.648Z,75.70
2018-05-24T05:17:30.840Z,75.10
2018-05-24T05:19:58.965Z,77.40
2018-05-24T05:22:27.130Z,77.70
2018-05-24T05:25:00.124Z,78.40
2018-05-24T05:27:28.274Z,79.50
2018-05-24T05:29:57.180Z,79.30
2018-05-24T05:32:25.764Z,79.30
2018-05-24T05:34:53.915Z,79.60
2018-05-24T05:37:23.172Z,81.00
2018-05-24T05:39:52.230Z,81.10
2018-05-24T05:42:22.008Z,81.10
2018-05-24T05:44:50.249Z,79.40
2018-05-24T05:47:26.562Z,80.10
2018-05-24T05:49:54.705Z,80.00
2018-05-24T05:52:22.826Z,80.60
2018-05-24T05:54:53.374Z,80.40
2018-05-24T05:57:21.482Z,79.60
2018-05-24T05:59:56.367Z,79.30
2018-05-24T06:02:24.504Z,78.90
2018-05-24T06:04:52.668Z,78.70
2018-05-24T06:07:22.221Z,77.60
2018-05-24T06:09:50.376Z,77.50
2018-05-24T06:12:20.099Z,78.20
2018-05-24T06:14:49.013Z,80.50
2018-05-24T06:17:17.139Z,80.50
2018-05-24T06:19:45.282Z,80.70
2018-05-24T06:22:13.421Z,80.40
2018-05-24T06:24:41.560Z,78.90
2018-05-24T06:27:10.638Z,80.70
2018-05-24T06:29:38.796Z,81.40
2018-05-24T06:32:06.913Z,81.00
2018-05-24T06:34:37.684Z,79.80
2018-05-24T06:37:05.808Z,79.10
2018-05-24T06:39:33.968Z,79.20
2018-05-24T06:42:02.107Z,80.30
2018-05-24T06:44:30.257Z,80.90
2018-05-24T06:46:59.140Z,79.30
2018-05-24T06:49:31.302Z,79.20
2018-05-24T06:52:00.368Z,78.30
2018-05-24T06:54:28.592Z,78.20
2018-05-24T06:56:57.055Z,78.40
2018-05-24T06:59:28.945Z,80.00
2018-05-24T07:01:57.079Z,79.90
2018-05-24T07:04:25.249Z,80.00
2018-05-24T07:06:55.504Z,79.80
2018-05-24T07:09:24.037Z,79.80
2018-05-24T07:11:52.160Z,79.10
2018-05-24T07:14:20.318Z,78.70
2018-05-24T07:16:49.217Z,77.20
2018-05-24T07:19:18.412Z,77.10
2018-05-24T07:21:47.328Z,76.40
2018-05-24T07:24:15.485Z,76.40
2018-05-24T07:26:45.303Z,76.00
2018-05-24T07:29:15.267Z,76.00
2018-05-24T07:31:43.396Z,75.70
2018-05-24T07:34:11.553Z,76.80
2018-05-24T07:36:41.273Z,77.60
2018-05-24T07:39:10.179Z,77.90
2018-05-24T07:41:38.889Z,77.90
2018-05-24T07:44:07.099Z,78.70
2018-05-24T07:46:36.513Z,79.00
2018-05-24T07:49:05.446Z,78.00
2018-05-24T07:51:33.563Z,78.00
2018-05-24T07:54:02.934Z,77.80
2018-05-24T07:56:31.069Z,78.30
2018-05-24T07:58:59.988Z,82.40
2018-05-24T08:01:28.118Z,82.30
2018-05-24T08:03:57.685Z,81.60
2018-05-24T08:08:57.590Z,82.70
2018-05-24T08:11:25.735Z,82.70
2018-05-24T08:13:53.874Z,84.40
2018-05-24T08:16:23.241Z,83.30
2018-05-24T08:18:52.721Z,79.50
2018-05-24T08:21:21.681Z,80.30
2018-05-24T08:23:49.832Z,80.30
2018-05-24T08:26:18.061Z,79.50
2018-05-24T08:28:48.229Z,79.20
2018-05-24T08:31:16.768Z,79.20
2018-05-24T08:33:45.684Z,77.70
2018-05-24T08:36:15.047Z,77.70
2018-05-24T08:38:43.234Z,78.20
2018-05-24T08:41:12.163Z,78.90
2018-05-24T08:43:40.303Z,78.80
2018-05-24T08:46:09.243Z,79.20
2018-05-24T08:48:37.490Z,79.20
2018-05-24T08:51:20.384Z,79.80
2018-05-24T08:53:48.992Z,80.00
2018-05-24T08:56:19.447Z,80.90
2018-05-24T08:58:48.572Z,81.70
2018-05-24T09:01:17.892Z,82.00
2018-05-24T09:03:45.998Z,83.30
2018-05-24T09:06:15.975Z,82.80
2018-05-24T09:08:44.143Z,83.40
2018-05-24T09:11:12.288Z,82.50
2018-05-24T09:13:41.345Z,83.30
2018-05-24T09:16:11.316Z,84.00
2018-05-24T09:18:39.905Z,84.30
2018-05-24T09:21:09.124Z,86.60
2018-05-24T09:23:38.127Z,85.30
2018-05-24T09:26:09.158Z,86.00
2018-05-24T09:28:37.295Z,85.90
2018-05-24T09:31:07.080Z,85.70
2018-05-24T09:33:37.181Z,84.50
2018-05-24T09:36:06.163Z,84.20
2018-05-24T09:38:35.046Z,85.20
2018-05-24T09:41:05.814Z,85.20
2018-05-24T09:43:34.981Z,86.40
2018-05-24T09:46:04.092Z,85.80
2018-05-24T09:48:34.499Z,87.90
2018-05-24T09:51:04.287Z,89.10
2018-05-24T09:53:32.407Z,88.10
2018-05-24T09:56:04.670Z,90.50
2018-05-24T09:58:34.899Z,91.50
2018-05-24T10:01:03.664Z,91.50
2018-05-24T10:03:32.445Z,90.90
2018-05-24T10:06:00.601Z,92.00
2018-05-24T10:08:30.668Z,92.50
2018-05-24T10:10:59.660Z,93.00
2018-05-24T10:13:30.345Z,93.00
2018-05-24T10:15:58.944Z,93.20
2018-05-24T10:18:31.939Z,93.20
2018-05-24T10:21:01.673Z,93.60
2018-05-24T10:23:30.765Z,93.90
2018-05-24T10:26:00.840Z,93.90
2018-05-24T10:28:28.981Z,93.50
2018-05-24T10:30:58.939Z,93.90
2018-05-24T10:33:27.092Z,93.20
2018-05-24T10:35:55.249Z,94.10
2018-05-24T10:38:25.178Z,93.90
2018-05-24T10:40:54.096Z,93.80
2018-05-24T10:43:30.548Z,95.10
2018-05-24T10:46:02.421Z,95.10
2018-05-24T10:48:33.829Z,95.10
2018-05-24T10:51:06.038Z,95.30
2018-05-24T10:53:34.184Z,95.70
2018-05-24T10:56:04.595Z,95.80
2018-05-24T10:58:35.574Z,96.10
2018-05-24T11:01:03.820Z,96.10
2018-05-24T11:03:32.589Z,97.30
2018-05-24T11:06:01.364Z,97.80
2018-05-24T11:08:29.628Z,98.30
2018-05-24T11:10:59.697Z,97.50
2018-05-24T11:13:29.234Z,99.00
2018-05-24T11:15:58.292Z,98.80
2018-05-24T11:18:26.487Z,99.90
2018-05-24T11:20:56.164Z,99.90
2018-05-24T11:23:26.200Z,99.90
2018-05-24T11:25:54.418Z,99.90
2018-05-24T11:28:25.029Z,99.90
2018-05-24T11:30:53.348Z,99.90
